createdAt,value
2023-05-12T00:01:13.565Z,9.10
2023-05-12T00:03:43.397Z,9.10
2023-05-12T00:06:26.605Z,9.10
2023-05-12T00:08:53.902Z,9.00
2023-05-12T00:11:28.315Z,9.10
2023-05-12T00:13:59.982Z,9.10
2023-05-12T00:16:30.271Z,9.10
2023-05-12T00:18:58.692Z,9.20
2023-05-12T00:21:36.265Z,9.20
2023-05-12T00:24:14.170Z,9.20
2023-05-12T00:26:41.558Z,9.20
2023-05-12T00:29:10.785Z,9.20
2023-05-12T00:31:38.919Z,9.20
2023-05-12T00:34:09.338Z,9.10
2023-05-12T00:36:39.949Z,9.10
2023-05-12T00:39:11.070Z,9.10
2023-05-12T00:41:40.145Z,9.10
2023-05-12T00:44:08.554Z,9.10
2023-05-12T00:46:35.983Z,9.00
2023-05-12T00:49:18.077Z,9.00
2023-05-12T00:51:47.268Z,9.00
2023-05-12T00:54:24.655Z,9.10
2023-05-12T00:57:01.270Z,9.10
2023-05-12T00:59:29.995Z,9.10
2023-05-12T01:02:00.498Z,9.10
2023-05-12T01:04:38.762Z,9.10
2023-05-12T01:07:23.223Z,9.10
2023-05-12T01:09:59.640Z,9.10
2023-05-12T01:12:29.074Z,9.10
2023-05-12T01:15:07.544Z,9.10
2023-05-12T01:17:41.510Z,9.10
2023-05-12T01:20:32.425Z,9.10
2023-05-12T01:23:46.873Z,9.10
2023-05-12T01:26:41.656Z,9.10
2023-05-12T01:29:30.455Z,9.10
2023-05-12T01:32:04.568Z,9.20
2023-05-12T01:34:41.607Z,9.20
2023-05-12T01:37:19.344Z,9.20
2023-05-12T01:39:46.431Z,9.20
2023-05-12T01:42:36.357Z,9.20
2023-05-12T01:45:04.518Z,9.20
2023-05-12T01:47:38.368Z,9.20
2023-05-12T01:50:17.919Z,9.20
2023-05-12T01:53:02.782Z,9.10
2023-05-12T01:55:35.598Z,9.20
2023-05-12T01:58:26.355Z,9.20
2023-05-12T02:01:06.920Z,9.20
2023-05-12T02:03:45.149Z,9.20
2023-05-12T02:06:15.341Z,9.10
2023-05-12T02:08:42.712Z,9.10
2023-05-12T02:11:20.873Z,9.20
2023-05-12T02:13:53.963Z,9.20
2023-05-12T02:16:26.670Z,9.20
2023-05-12T02:19:06.990Z,9.20
2023-05-12T02:21:39.131Z,9.10
2023-05-12T02:24:14.997Z,9.10
2023-05-12T02:26:45.346Z,9.10
2023-05-12T02:29:14.668Z,9.10
2023-05-12T02:31:52.778Z,9.10
2023-05-12T02:34:20.381Z,9.10
2023-05-12T02:36:48.811Z,9.10
2023-05-12T02:39:22.775Z,9.10
2023-05-12T02:42:00.662Z,9.10
2023-05-12T02:44:52.338Z,9.00
2023-05-12T02:47:29.443Z,9.00
2023-05-12T02:50:03.228Z,9.00
2023-05-12T02:52:54.662Z,8.90
2023-05-12T02:55:25.360Z,8.90
2023-05-12T02:57:59.879Z,8.90
2023-05-12T03:00:56.889Z,8.90
2023-05-12T03:03:51.609Z,8.90
2023-05-12T03:06:24.588Z,8.90
2023-05-12T03:08:56.887Z,8.90
2023-05-12T03:11:51.013Z,8.90
2023-05-12T03:14:32.592Z,8.90
2023-05-12T03:17:05.626Z,8.90
2023-05-12T03:20:00.729Z,8.90
2023-05-12T03:22:32.178Z,8.90
2023-05-12T03:25:12.040Z,8.80
2023-05-12T03:27:58.020Z,8.80
2023-05-12T03:30:45.023Z,8.80
2023-05-12T03:36:06.296Z,8.80
2023-05-12T03:38:42.444Z,8.90
2023-05-12T03:41:14.707Z,8.90
2023-05-12T03:44:01.321Z,8.80
2023-05-12T03:47:20.675Z,8.70
2023-05-12T03:49:56.630Z,8.80
2023-05-12T03:52:26.247Z,8.80
2023-05-12T03:54:54.910Z,8.80
2023-05-12T03:57:27.100Z,8.80
2023-05-12T04:00:10.927Z,8.90
2023-05-12T04:02:45.518Z,8.90
2023-05-12T04:05:14.596Z,8.90
2023-05-12T04:08:07.566Z,8.80
2023-05-12T04:11:05.712Z,8.90
2023-05-12T04:13:48.117Z,8.90
2023-05-12T04:16:25.718Z,8.80
2023-05-12T04:18:54.803Z,8.70
2023-05-12T04:21:47.839Z,8.70
2023-05-12T04:24:30.518Z,8.60
2023-05-12T04:27:00.948Z,8.60
2023-05-12T04:29:35.634Z,8.60
2023-05-12T04:32:18.511Z,8.50
2023-05-12T04:35:21.374Z,8.60
2023-05-12T04:38:11.145Z,8.70
2023-05-12T04:41:07.520Z,8.70
2023-05-12T04:44:10.756Z,8.60
2023-05-12T04:46:59.352Z,8.70
2023-05-12T04:49:44.067Z,8.70
2023-05-12T04:52:20.758Z,8.70
2023-05-12T04:54:48.377Z,8.80
2023-05-12T04:57:27.025Z,8.80
2023-05-12T05:00:04.219Z,8.80
2023-05-12T05:02:57.558Z,8.70
2023-05-12T05:05:55.371Z,8.80
2023-05-12T05:08:32.572Z,8.80
2023-05-12T05:11:07.678Z,8.80
2023-05-12T05:13:46.346Z,8.80
2023-05-12T05:16:14.700Z,8.80
2023-05-12T05:19:36.239Z,8.80
2023-05-12T05:22:13.417Z,8.90
2023-05-12T05:24:43.525Z,8.90
2023-05-12T05:30:33.226Z,8.90
2023-05-12T05:33:23.336Z,9.00
2023-05-12T05:35:53.243Z,9.00
2023-05-12T05:38:43.017Z,9.00
2023-05-12T05:41:20.304Z,9.10
2023-05-12T05:44:00.478Z,9.20
2023-05-12T05:46:49.024Z,9.20
2023-05-12T05:49:48.426Z,9.20
2023-05-12T05:52:28.215Z,9.30
2023-05-12T05:55:08.273Z,9.30
2023-05-12T05:57:58.278Z,9.20
2023-05-12T06:00:36.059Z,9.20
2023-05-12T06:03:04.841Z,9.20
2023-05-12T06:05:52.016Z,9.30
2023-05-12T06:08:45.567Z,9.20
2023-05-12T06:11:17.156Z,9.30
2023-05-12T06:14:04.651Z,9.30
2023-05-12T06:16:55.131Z,9.30
2023-05-12T06:19:51.410Z,9.30
2023-05-12T06:22:18.927Z,9.30
2023-05-12T06:24:47.632Z,9.30
2023-05-12T06:27:17.254Z,9.40
2023-05-12T06:29:47.863Z,9.30
2023-05-12T06:32:16.273Z,9.30
2023-05-12T06:34:51.343Z,9.20
2023-05-12T06:37:28.741Z,9.30
2023-05-12T06:39:58.659Z,9.30
2023-05-12T06:42:30.173Z,9.40
2023-05-12T06:44:59.088Z,9.40
2023-05-12T06:47:26.734Z,9.30
2023-05-12T06:49:56.961Z,9.40
2023-05-12T06:52:26.453Z,9.40
2023-05-12T06:54:55.993Z,9.40
2023-05-12T06:57:24.498Z,9.40
2023-05-12T06:59:52.690Z,9.50
2023-05-12T07:02:22.141Z,9.60
2023-05-12T07:04:54.510Z,9.50
2023-05-12T07:07:25.460Z,9.50
2023-05-12T07:10:06.778Z,9.50
2023-05-12T07:12:35.674Z,9.50
2023-05-12T07:15:07.773Z,9.60
2023-05-12T07:17:36.650Z,9.60
2023-05-12T07:20:06.374Z,9.70
2023-05-12T07:22:39.429Z,9.80
2023-05-12T07:25:11.348Z,9.70
2023-05-12T07:27:42.460Z,9.80
2023-05-12T07:30:11.752Z,9.80
2023-05-12T07:32:42.488Z,9.80
2023-05-12T07:35:11.706Z,9.80
2023-05-12T07:37:47.271Z,9.70
2023-05-12T07:40:17.416Z,9.80
2023-05-12T07:42:46.911Z,9.80
2023-05-12T07:45:25.634Z,10.00
2023-05-12T07:48:02.404Z,10.00
2023-05-12T07:50:31.715Z,10.20
2023-05-12T07:53:00.152Z,10.30
2023-05-12T07:55:30.567Z,10.20
2023-05-12T07:57:58.033Z,10.20
2023-05-12T08:00:26.546Z,10.20
2023-05-12T08:03:00.869Z,10.20
2023-05-12T08:05:32.169Z,10.20
2023-05-12T08:08:00.217Z,10.30
2023-05-12T08:10:30.254Z,10.30
2023-05-12T08:12:58.563Z,10.30
2023-05-12T08:15:26.908Z,10.40
2023-05-12T08:17:55.365Z,10.40
2023-05-12T08:20:27.390Z,10.40
2023-05-12T08:23:00.353Z,10.30
2023-05-12T08:25:31.773Z,10.30
2023-05-12T08:28:03.192Z,10.40
2023-05-12T08:30:40.113Z,10.40
2023-05-12T08:33:10.691Z,10.50
2023-05-12T08:35:40.056Z,10.40
2023-05-12T08:38:12.941Z,10.40
2023-05-12T08:41:32.748Z,10.40
2023-05-12T08:44:03.864Z,10.50
2023-05-12T08:46:33.264Z,10.50
2023-05-12T08:49:03.846Z,10.50
2023-05-12T08:51:43.463Z,10.50
2023-05-12T08:54:16.037Z,10.40
2023-05-12T08:59:20.779Z,10.60
2023-05-12T09:01:54.891Z,10.50
2023-05-12T09:04:35.572Z,10.50
2023-05-12T09:07:07.870Z,10.50
2023-05-12T09:09:39.701Z,10.50
2023-05-12T09:12:19.285Z,10.60
2023-05-12T09:14:55.818Z,10.70
2023-05-12T09:17:24.351Z,10.60
2023-05-12T09:19:52.783Z,10.60
2023-05-12T09:22:33.932Z,10.60
2023-05-12T09:25:21.305Z,10.70
2023-05-12T09:27:56.260Z,10.70
2023-05-12T09:30:39.362Z,10.80
2023-05-12T09:33:36.915Z,10.80
2023-05-12T09:36:09.580Z,10.70
2023-05-12T09:38:39.134Z,10.90
2023-05-12T09:41:15.198Z,11.00
2023-05-12T09:43:48.737Z,11.00
2023-05-12T09:46:18.371Z,11.00
2023-05-12T09:48:49.682Z,11.10
2023-05-12T09:51:23.966Z,11.20
2023-05-12T09:53:53.485Z,11.20
2023-05-12T09:56:21.985Z,11.10
2023-05-12T09:58:50.990Z,11.30
2023-05-12T10:01:28.696Z,11.40
2023-05-12T10:04:01.071Z,11.60
2023-05-12T10:06:40.148Z,11.70
2023-05-12T10:09:37.701Z,11.40
2023-05-12T10:12:14.651Z,11.30
2023-05-12T10:14:45.110Z,11.30
2023-05-12T10:17:25.782Z,11.30
2023-05-12T10:20:04.704Z,11.10
2023-05-12T10:22:59.567Z,11.10
2023-05-12T10:25:31.315Z,11.20
2023-05-12T10:28:01.879Z,11.20
2023-05-12T10:30:34.603Z,11.20
2023-05-12T10:33:06.485Z,11.20
2023-05-12T10:35:36.927Z,11.20
2023-05-12T10:38:15.792Z,11.10
2023-05-12T10:41:01.805Z,11.10
2023-05-12T10:43:39.215Z,11.10
2023-05-12T10:46:31.097Z,10.90
2023-05-12T10:49:13.235Z,10.80
2023-05-12T10:51:58.883Z,10.70
2023-05-12T10:54:31.747Z,10.60
2023-05-12T10:57:00.714Z,10.60
2023-05-12T10:59:31.381Z,10.60
2023-05-12T11:02:27.966Z,10.50
2023-05-12T11:05:12.908Z,10.40
2023-05-12T11:07:41.916Z,10.40
2023-05-12T11:10:15.248Z,10.40
2023-05-12T11:12:48.233Z,10.40
2023-05-12T11:15:18.167Z,10.50
2023-05-12T11:17:47.013Z,10.60
2023-05-12T11:20:31.013Z,10.60
2023-05-12T11:23:07.266Z,10.70
2023-05-12T11:25:35.699Z,10.80
2023-05-12T11:28:04.446Z,10.70
2023-05-12T11:30:31.533Z,10.60
2023-05-12T11:33:08.612Z,10.70
2023-05-12T11:35:38.295Z,10.70
2023-05-12T11:38:19.016Z,10.70
2023-05-12T11:40:47.783Z,10.70
2023-05-12T11:43:23.465Z,10.80
2023-05-12T11:45:55.432Z,10.80
2023-05-12T11:48:35.860Z,10.80
2023-05-12T11:51:04.017Z,10.90
2023-05-12T11:53:37.630Z,10.90
2023-05-12T11:56:06.184Z,10.90
2023-05-12T11:58:43.242Z,10.90
2023-05-12T12:01:14.482Z,10.70
2023-05-12T12:03:56.061Z,11.00
2023-05-12T12:06:26.189Z,11.00
2023-05-12T12:09:00.978Z,11.10
2023-05-12T12:11:39.656Z,11.30
2023-05-12T12:14:09.208Z,11.10
2023-05-12T12:16:47.711Z,11.20
2023-05-12T12:19:24.508Z,11.20
2023-05-12T12:22:01.046Z,11.10
2023-05-12T12:24:29.905Z,11.10
2023-05-12T12:26:59.969Z,11.00
2023-05-12T12:29:30.034Z,11.00
2023-05-12T12:32:00.916Z,11.10
2023-05-12T12:34:29.016Z,11.00
2023-05-12T12:37:22.532Z,11.00
2023-05-12T12:40:11.618Z,11.00
2023-05-12T12:42:43.367Z,11.10
2023-05-12T12:45:23.254Z,11.10
2023-05-12T12:47:56.443Z,11.10
2023-05-12T12:50:27.845Z,11.20
2023-05-12T12:52:58.708Z,11.10
2023-05-12T12:55:30.680Z,11.20
2023-05-12T12:57:59.056Z,11.20
2023-05-12T13:00:28.317Z,11.30
2023-05-12T13:02:58.471Z,11.20
2023-05-12T13:05:27.426Z,11.20
2023-05-12T13:07:56.744Z,11.30
2023-05-12T13:10:27.762Z,11.30
2023-05-12T13:12:55.931Z,11.30
2023-05-12T13:15:26.269Z,11.20
2023-05-12T13:18:03.836Z,11.30
2023-05-12T13:20:37.765Z,11.30
2023-05-12T13:23:06.469Z,11.40
2023-05-12T13:25:35.126Z,11.20
2023-05-12T13:28:03.614Z,11.10
2023-05-12T13:30:32.204Z,10.90
2023-05-12T13:33:05.074Z,10.80
2023-05-12T13:35:43.796Z,10.50
2023-05-12T13:38:13.440Z,10.50
2023-05-12T13:40:44.243Z,10.50
2023-05-12T13:43:13.214Z,10.50
2023-05-12T13:45:50.434Z,10.50
2023-05-12T13:48:31.447Z,10.50
2023-05-12T13:51:04.822Z,10.50
2023-05-12T13:53:33.228Z,10.60
2023-05-12T13:56:02.577Z,10.80
2023-05-12T13:58:34.981Z,10.80
2023-05-12T14:01:07.298Z,10.80
2023-05-12T14:03:39.873Z,10.90
2023-05-12T14:06:11.018Z,10.90
2023-05-12T14:08:38.855Z,10.90
2023-05-12T14:11:11.875Z,11.00
2023-05-12T14:13:48.395Z,10.80
2023-05-12T14:16:16.918Z,10.70
2023-05-12T14:18:54.631Z,10.50
2023-05-12T14:21:24.872Z,10.60
2023-05-12T14:23:58.550Z,10.60
2023-05-12T14:26:29.221Z,10.70
2023-05-12T14:29:00.361Z,10.90
2023-05-12T14:31:30.670Z,10.90
2023-05-12T14:34:07.156Z,10.90
2023-05-12T14:36:36.334Z,10.90
2023-05-12T14:39:14.423Z,10.90
2023-05-12T14:41:45.233Z,10.90
2023-05-12T14:44:15.792Z,10.90
2023-05-12T14:46:43.099Z,10.80
2023-05-12T14:49:14.234Z,10.70
2023-05-12T14:51:44.113Z,10.50
2023-05-12T14:54:24.879Z,10.40
2023-05-12T14:56:52.848Z,10.30
2023-05-12T14:59:27.452Z,10.20
2023-05-12T15:02:06.474Z,10.30
2023-05-12T15:04:35.209Z,10.40
2023-05-12T15:07:05.398Z,10.30
2023-05-12T15:09:36.070Z,10.20
2023-05-12T15:12:07.110Z,10.20
2023-05-12T15:14:37.367Z,10.20
2023-05-12T15:17:19.118Z,10.20
2023-05-12T15:19:48.090Z,10.20
2023-05-12T15:22:19.317Z,10.20
2023-05-12T15:24:49.470Z,10.20
2023-05-12T15:27:18.130Z,10.20
2023-05-12T15:29:49.121Z,10.20
2023-05-12T15:32:19.852Z,10.20
2023-05-12T15:34:48.871Z,10.20
2023-05-12T15:37:19.588Z,10.20
2023-05-12T15:39:54.544Z,10.10
2023-05-12T15:42:36.486Z,10.10
2023-05-12T15:45:13.033Z,10.10
2023-05-12T15:47:52.821Z,10.10
2023-05-12T15:50:27.157Z,10.10
2023-05-12T15:52:56.814Z,10.10
2023-05-12T15:55:32.934Z,10.10
2023-05-12T15:58:09.440Z,10.20
2023-05-12T16:00:50.422Z,10.20
2023-05-12T16:03:18.968Z,10.00
2023-05-12T16:05:51.783Z,10.00
2023-05-12T16:08:24.673Z,9.90
2023-05-12T16:10:54.349Z,9.90
2023-05-12T16:13:22.806Z,10.00
2023-05-12T16:15:53.886Z,10.00
2023-05-12T16:18:23.830Z,10.00
2023-05-12T16:20:54.295Z,10.10
2023-05-12T16:23:31.181Z,10.00
2023-05-12T16:26:01.653Z,10.20
2023-05-12T16:28:34.669Z,10.10
2023-05-12T16:31:04.922Z,10.10
2023-05-12T16:33:41.547Z,10.10
2023-05-12T16:36:10.834Z,10.00
2023-05-12T16:38:37.950Z,9.90
2023-05-12T16:41:15.658Z,9.90
2023-05-12T16:43:43.178Z,9.90
2023-05-12T16:46:13.035Z,9.90
2023-05-12T16:48:49.019Z,9.90
2023-05-12T16:51:18.815Z,9.80
2023-05-12T16:53:47.495Z,9.90
2023-05-12T16:56:17.615Z,9.90
2023-05-12T16:58:51.029Z,9.80
2023-05-12T17:01:18.666Z,9.80
2023-05-12T17:03:49.816Z,9.80
2023-05-12T17:06:18.330Z,9.80
2023-05-12T17:08:46.556Z,9.90
2023-05-12T17:11:15.000Z,9.90
2023-05-12T17:13:50.995Z,9.90
2023-05-12T17:16:30.045Z,9.90
2023-05-12T17:21:30.900Z,9.80
2023-05-12T17:23:59.720Z,9.80
2023-05-12T17:26:28.781Z,9.80
2023-05-12T17:28:59.269Z,9.70
2023-05-12T17:31:30.485Z,9.70
2023-05-12T17:33:58.693Z,9.80
2023-05-12T17:36:35.165Z,9.80
2023-05-12T17:39:04.230Z,9.80
2023-05-12T17:41:38.229Z,9.70
2023-05-12T17:44:15.388Z,9.70
2023-05-12T17:46:46.456Z,9.80
2023-05-12T17:49:14.753Z,9.70
2023-05-12T17:51:45.353Z,9.70
2023-05-12T17:54:22.350Z,9.80
2023-05-12T17:56:53.345Z,9.80
2023-05-12T17:59:26.005Z,9.90
2023-05-12T18:01:55.945Z,9.80
2023-05-12T18:04:26.462Z,9.80
2023-05-12T18:07:53.691Z,9.90
2023-05-12T18:10:24.296Z,9.90
2023-05-12T18:12:53.786Z,9.80
2023-05-12T18:15:25.662Z,9.80
2023-05-12T18:17:56.846Z,9.90
2023-05-12T18:20:26.956Z,9.90
2023-05-12T18:22:57.905Z,9.90
2023-05-12T18:25:35.497Z,10.00
2023-05-12T18:28:09.964Z,10.00
2023-05-12T18:30:39.608Z,9.80
2023-05-12T18:33:08.817Z,9.80
2023-05-12T18:35:37.481Z,9.80
2023-05-12T18:38:07.753Z,9.70
2023-05-12T18:40:36.793Z,9.70
2023-05-12T18:43:07.936Z,9.70
2023-05-12T18:45:44.066Z,9.60
2023-05-12T18:48:14.103Z,9.70
2023-05-12T18:50:45.471Z,9.70
2023-05-12T18:53:21.426Z,9.70
2023-05-12T18:55:50.846Z,9.60
2023-05-12T18:58:25.302Z,9.70
2023-05-12T19:00:55.187Z,9.70
2023-05-12T19:03:23.727Z,9.70
2023-05-12T19:05:54.189Z,9.60
2023-05-12T19:08:28.790Z,9.70
2023-05-12T19:11:08.741Z,9.60
2023-05-12T19:13:43.346Z,9.70
2023-05-12T19:16:23.031Z,9.70
2023-05-12T19:19:11.442Z,9.60
2023-05-12T19:21:41.687Z,9.60
2023-05-12T19:24:12.235Z,9.60
2023-05-12T19:26:47.258Z,9.60
2023-05-12T19:29:23.663Z,9.50
2023-05-12T19:31:53.313Z,9.60
2023-05-12T19:34:22.840Z,9.50
2023-05-12T19:36:53.650Z,9.50
2023-05-12T19:39:24.520Z,9.50
2023-05-12T19:41:53.036Z,9.50
2023-05-12T19:44:23.716Z,9.50
2023-05-12T19:46:53.873Z,9.40
2023-05-12T19:49:30.890Z,9.50
2023-05-12T19:52:04.249Z,9.50
2023-05-12T19:54:35.207Z,9.50
2023-05-12T19:57:06.490Z,9.60
2023-05-12T19:59:33.686Z,9.70
2023-05-12T20:02:02.084Z,9.60
2023-05-12T20:04:35.002Z,9.70
2023-05-12T20:07:10.919Z,9.70
2023-05-12T20:09:47.980Z,9.70
2023-05-12T20:12:16.963Z,9.70
2023-05-12T20:14:53.312Z,9.60
2023-05-12T20:17:26.032Z,9.50
2023-05-12T20:19:53.129Z,9.60
2023-05-12T20:22:22.428Z,9.60
2023-05-12T20:24:51.761Z,9.70
2023-05-12T20:27:21.287Z,9.70
2023-05-12T20:29:55.014Z,9.70
2023-05-12T20:32:23.258Z,9.70
2023-05-12T20:35:00.109Z,9.60
2023-05-12T20:37:28.864Z,9.80
2023-05-12T20:40:05.961Z,9.90
2023-05-12T20:42:33.326Z,9.90
2023-05-12T20:45:04.784Z,9.90
2023-05-12T20:47:37.848Z,9.80
2023-05-12T20:50:09.968Z,9.80
2023-05-12T20:52:40.006Z,9.50
2023-05-12T20:55:10.302Z,9.50
2023-05-12T20:57:50.531Z,9.40
2023-05-12T21:00:18.538Z,9.50
2023-05-12T21:02:49.868Z,9.40
2023-05-12T21:05:19.659Z,9.30
2023-05-12T21:07:56.926Z,9.40
2023-05-12T21:10:25.534Z,9.40
2023-05-12T21:12:54.247Z,9.40
2023-05-12T21:15:26.501Z,9.30
2023-05-12T21:17:57.254Z,9.30
2023-05-12T21:20:27.643Z,9.40
2023-05-12T21:22:58.779Z,9.30
2023-05-12T21:25:31.898Z,9.30
2023-05-12T21:28:08.508Z,9.30
2023-05-12T21:30:38.011Z,9.30
2023-05-12T21:33:15.300Z,9.20
2023-05-12T21:35:43.712Z,9.30
2023-05-12T21:38:15.901Z,9.20
2023-05-12T21:43:34.137Z,9.30
2023-05-12T21:46:07.989Z,9.30
2023-05-12T21:48:38.668Z,9.30
2023-05-12T21:51:19.051Z,9.30
2023-05-12T21:53:49.641Z,9.30
2023-05-12T21:56:18.591Z,9.30
2023-05-12T21:58:45.686Z,9.30
2023-05-12T22:01:16.508Z,9.20
2023-05-12T22:06:27.335Z,9.10
2023-05-12T22:09:00.413Z,9.20
2023-05-12T22:11:30.654Z,9.20
2023-05-12T22:14:00.390Z,9.20
2023-05-12T22:16:40.711Z,9.20
2023-05-12T22:19:10.763Z,9.30
2023-05-12T22:21:39.749Z,9.30
2023-05-12T22:24:10.396Z,9.30
2023-05-12T22:26:40.021Z,9.30
2023-05-12T22:29:08.554Z,9.10
2023-05-12T22:31:44.787Z,9.20
2023-05-12T22:34:15.628Z,9.20
2023-05-12T22:36:44.916Z,9.20
2023-05-12T22:39:14.234Z,9.30
2023-05-12T22:41:45.508Z,9.30
2023-05-12T22:44:15.068Z,9.30
2023-05-12T22:46:50.224Z,9.40
2023-05-12T22:49:17.996Z,9.50
2023-05-12T22:51:45.145Z,9.40
2023-05-12T22:54:15.901Z,9.40
2023-05-12T22:56:46.583Z,9.30
2023-05-12T22:59:16.676Z,9.20
2023-05-12T23:01:44.973Z,9.20
2023-05-12T23:04:14.102Z,9.10
2023-05-12T23:06:44.989Z,9.20
2023-05-12T23:09:15.849Z,9.10
2023-05-12T23:11:49.920Z,9.10
2023-05-12T23:14:22.801Z,9.10
2023-05-12T23:16:54.349Z,9.10
2023-05-12T23:19:23.648Z,9.00
2023-05-12T23:21:53.382Z,9.00
2023-05-12T23:24:23.292Z,9.00
2023-05-12T23:26:53.778Z,9.00
2023-05-12T23:29:24.871Z,9.00
2023-05-12T23:31:54.888Z,9.00
2023-05-12T23:34:24.440Z,9.10
2023-05-12T23:36:52.814Z,9.00
2023-05-12T23:39:30.514Z,9.10
2023-05-12T23:42:08.033Z,9.10
2023-05-12T23:44:36.940Z,9.20
2023-05-12T23:47:07.060Z,9.20
2023-05-12T23:49:38.066Z,9.10
2023-05-12T23:52:08.449Z,9.10
2023-05-12T23:54:47.176Z,9.10
2023-05-12T23:57:18.801Z,9.20
2023-05-12T23:59:48.983Z,9.10
